Aimwell, LA

4:52 PM CDT on July 29, 2016 (GMT -0500)
[WERK]bereich | | Change Station

Elev 161 ft 32.03 °N, 92.14 °W | Updated 14 seconds ago

Partly Cloudy
Partly Cloudy
87.4 °F
Feels Like 101 °F
N
0.2
Wind Variable Wind from NE
Gusts 2.5 mph

Today
High -- | Low -- °F
--% Chance of Precip.
Yesterday
High -- | Low -- °F
Precip. -- in
Pressure 30.00 in
Visibility 10.0 miles
Clouds Few 3900 ft
Heat Index 101 °F
Dew Point 78 °F
Humidity 74%
Rainfall 0.00 in
Snow Depth Not available.
6:22 AM 8:06 PM
Waning Crescent, 19% visible
METAR KESF 292053Z AUTO VRB03KT 10SM FEW039 29/24 A3001 RMK AO2 LTG DSNT SW AND NW RAB1954E32 SLP159 P0000 60001 T02940244 56013
Pressure 30.00 in
Visibility 10.0 miles
Clouds Few 3900 ft
Heat Index 101 °F
Dew Point 78 °F
Humidity 74%
Rainfall 0.00 in
Snow Depth Not available.
6:22 AM 8:06 PM
Waning Crescent, 19% visible
METAR KESF 292053Z AUTO VRB03KT 10SM FEW039 29/24 A3001 RMK AO2 LTG DSNT SW AND NW RAB1954E32 SLP159 P0000 60001 T02940244 56013

10-Day Weather Forecast

Almanac

Astronomy

Jul. 29, 2016 Rise Set
Actual Time
Civil Twilight
Nautical Twilight
Astronomical Twilight
Moon
Length of Visible Light
Length of Day
Tomorrow will be .
, % of the Moon is Illuminated

Today's Extremes

State Highs State Lows

Community

WunderPhotos

Upload Photos

1,928,423 photos uploaded!

WunderBlog® & News

Nearby

Air Quality

  Air Quality AQ Index Pollutant
Not available.

Snow Depth

Station Depth Elevation

Earthquake Activity

City Distance Mag. Time & Date
Minimum magnitude displayed is 2.5.

Coastal Water Temperatures

Place Temperature

Stations

Nearby Weather Stations

Station Location Temp. Windchill Dew Point Humidity Wind Precip. Elev Updated Type
                   

Watches & Warnings

There are currently no watches in effect.